sensor_id;sensor_type;location;lat;lon;timestamp;temperature;humidity
48043;DHT22;33988;47.992;8.820;2023-11-21T00:01:38;15.20;52.30
48043;DHT22;33988;47.992;8.820;2023-11-21T00:04:05;15.20;52.30
48043;DHT22;33988;47.992;8.820;2023-11-21T00:06:34;15.20;52.30
48043;DHT22;33988;47.992;8.820;2023-11-21T00:09:01;15.20;52.30
48043;DHT22;33988;47.992;8.820;2023-11-21T00:11:31;15.20;52.40
48043;DHT22;33988;47.992;8.820;2023-11-21T00:14:00;15.20;52.40
48043;DHT22;33988;47.992;8.820;2023-11-21T00:16:27;15.20;52.50
48043;DHT22;33988;47.992;8.820;2023-11-21T00:18:55;15.20;52.50
48043;DHT22;33988;47.992;8.820;2023-11-21T00:21:24;15.20;52.50
48043;DHT22;33988;47.992;8.820;2023-11-21T00:23:51;15.20;52.40
48043;DHT22;33988;47.992;8.820;2023-11-21T00:26:18;15.20;52.50
48043;DHT22;33988;47.992;8.820;2023-11-21T00:28:49;15.20;52.50
48043;DHT22;33988;47.992;8.820;2023-11-21T00:31:17;15.20;52.50
48043;DHT22;33988;47.992;8.820;2023-11-21T00:33:46;15.10;52.50
48043;DHT22;33988;47.992;8.820;2023-11-21T00:36:13;15.20;52.60
48043;DHT22;33988;47.992;8.820;2023-11-21T00:38:42;15.20;52.60
48043;DHT22;33988;47.992;8.820;2023-11-21T00:41:09;15.20;52.70
48043;DHT22;33988;47.992;8.820;2023-11-21T00:43:36;15.10;52.70
48043;DHT22;33988;47.992;8.820;2023-11-21T00:46:09;15.10;52.70
48043;DHT22;33988;47.992;8.820;2023-11-21T00:48:36;15.10;53.60
48043;DHT22;33988;47.992;8.820;2023-11-21T00:51:05;15.10;52.90
48043;DHT22;33988;47.992;8.820;2023-11-21T00:53:33;15.10;52.90
48043;DHT22;33988;47.992;8.820;2023-11-21T00:55:59;15.10;53.00
48043;DHT22;33988;47.992;8.820;2023-11-21T00:58:27;15.10;53.10
48043;DHT22;33988;47.992;8.820;2023-11-21T01:00:54;15.10;53.10
48043;DHT22;33988;47.992;8.820;2023-11-21T01:03:21;15.10;53.10
48043;DHT22;33988;47.992;8.820;2023-11-21T01:05:48;15.10;53.20
48043;DHT22;33988;47.992;8.820;2023-11-21T01:08:17;15.10;53.20
48043;DHT22;33988;47.992;8.820;2023-11-21T01:10:44;15.10;53.30
48043;DHT22;33988;47.992;8.820;2023-11-21T01:13:14;15.10;53.40
48043;DHT22;33988;47.992;8.820;2023-11-21T01:15:42;15.10;53.50
48043;DHT22;33988;47.992;8.820;2023-11-21T01:18:14;15.10;53.50
48043;DHT22;33988;47.992;8.820;2023-11-21T01:20:43;15.10;53.50
48043;DHT22;33988;47.992;8.820;2023-11-21T01:23:11;15.10;53.60
48043;DHT22;33988;47.992;8.820;2023-11-21T01:25:40;15.10;53.60
48043;DHT22;33988;47.992;8.820;2023-11-21T01:28:07;15.00;54.30
48043;DHT22;33988;47.992;8.820;2023-11-21T01:30:34;15.10;53.80
48043;DHT22;33988;47.992;8.820;2023-11-21T01:33:06;15.10;53.80
48043;DHT22;33988;47.992;8.820;2023-11-21T01:35:33;15.10;53.90
48043;DHT22;33988;47.992;8.820;2023-11-21T01:38:00;15.10;53.90
48043;DHT22;33988;47.992;8.820;2023-11-21T01:40:30;15.00;53.80
48043;DHT22;33988;47.992;8.820;2023-11-21T01:43:00;15.00;53.90
48043;DHT22;33988;47.992;8.820;2023-11-21T01:45:30;15.00;53.90
48043;DHT22;33988;47.992;8.820;2023-11-21T01:48:03;15.00;54.00
48043;DHT22;33988;47.992;8.820;2023-11-21T01:50:33;15.00;54.00
48043;DHT22;33988;47.992;8.820;2023-11-21T01:53:00;15.00;54.00
48043;DHT22;33988;47.992;8.820;2023-11-21T01:55:28;15.00;54.00
48043;DHT22;33988;47.992;8.820;2023-11-21T01:57:57;15.00;54.10
48043;DHT22;33988;47.992;8.820;2023-11-21T02:00:24;15.00;54.10
48043;DHT22;33988;47.992;8.820;2023-11-21T02:02:52;15.00;54.20
48043;DHT22;33988;47.992;8.820;2023-11-21T02:05:23;15.00;54.20
48043;DHT22;33988;47.992;8.820;2023-11-21T02:07:50;15.00;54.20
48043;DHT22;33988;47.992;8.820;2023-11-21T02:10:21;15.00;54.40
48043;DHT22;33988;47.992;8.820;2023-11-21T02:12:51;15.00;54.30
48043;DHT22;33988;47.992;8.820;2023-11-21T02:15:19;15.00;54.30
48043;DHT22;33988;47.992;8.820;2023-11-21T02:17:52;15.00;54.30
48043;DHT22;33988;47.992;8.820;2023-11-21T02:20:21;15.00;54.40
48043;DHT22;33988;47.992;8.820;2023-11-21T02:22:55;14.90;54.40
48043;DHT22;33988;47.992;8.820;2023-11-21T02:28:00;14.90;54.40
48043;DHT22;33988;47.992;8.820;2023-11-21T02:30:35;15.00;54.50
48043;DHT22;33988;47.992;8.820;2023-11-21T02:33:04;15.00;54.50
48043;DHT22;33988;47.992;8.820;2023-11-21T02:35:32;15.00;54.50
48043;DHT22;33988;47.992;8.820;2023-11-21T02:37:59;15.00;54.50
48043;DHT22;33988;47.992;8.820;2023-11-21T02:40:29;15.00;54.50
48043;DHT22;33988;47.992;8.820;2023-11-21T02:42:59;15.00;54.60
48043;DHT22;33988;47.992;8.820;2023-11-21T02:45:29;14.90;54.50
48043;DHT22;33988;47.992;8.820;2023-11-21T02:47:56;14.90;54.50
48043;DHT22;33988;47.992;8.820;2023-11-21T02:50:25;14.90;54.60
48043;DHT22;33988;47.992;8.820;2023-11-21T02:52:56;14.90;54.60
48043;DHT22;33988;47.992;8.820;2023-11-21T02:55:27;14.90;54.60
48043;DHT22;33988;47.992;8.820;2023-11-21T02:57:57;14.90;54.50
48043;DHT22;33988;47.992;8.820;2023-11-21T03:00:24;14.90;54.60
48043;DHT22;33988;47.992;8.820;2023-11-21T03:02:55;14.90;54.60
48043;DHT22;33988;47.992;8.820;2023-11-21T03:05:22;14.90;54.60
48043;DHT22;33988;47.992;8.820;2023-11-21T03:07:49;14.90;54.70
48043;DHT22;33988;47.992;8.820;2023-11-21T03:10:16;14.90;54.70
48043;DHT22;33988;47.992;8.820;2023-11-21T03:12:43;14.90;54.70
48043;DHT22;33988;47.992;8.820;2023-11-21T03:15:13;14.90;54.70
48043;DHT22;33988;47.992;8.820;2023-11-21T03:17:45;14.90;54.70
48043;DHT22;33988;47.992;8.820;2023-11-21T03:20:18;14.90;54.70
48043;DHT22;33988;47.992;8.820;2023-11-21T03:22:45;14.90;54.70
48043;DHT22;33988;47.992;8.820;2023-11-21T03:25:13;14.90;54.70
48043;DHT22;33988;47.992;8.820;2023-11-21T03:27:40;14.90;54.70
48043;DHT22;33988;47.992;8.820;2023-11-21T03:30:08;14.90;54.70
48043;DHT22;33988;47.992;8.820;2023-11-21T03:32:36;14.90;54.70
48043;DHT22;33988;47.992;8.820;2023-11-21T03:35:04;14.90;54.70
48043;DHT22;33988;47.992;8.820;2023-11-21T03:37:33;14.80;54.50
48043;DHT22;33988;47.992;8.820;2023-11-21T03:40:00;14.80;54.50
48043;DHT22;33988;47.992;8.820;2023-11-21T03:42:31;14.80;54.50
48043;DHT22;33988;47.992;8.820;2023-11-21T03:44:57;14.80;54.50
48043;DHT22;33988;47.992;8.820;2023-11-21T03:47:26;14.80;54.40
48043;DHT22;33988;47.992;8.820;2023-11-21T03:49:54;14.70;54.30
48043;DHT22;33988;47.992;8.820;2023-11-21T03:52:23;14.70;54.20
48043;DHT22;33988;47.992;8.820;2023-11-21T03:54:51;14.70;54.80
48043;DHT22;33988;47.992;8.820;2023-11-21T03:57:20;14.70;54.20
48043;DHT22;33988;47.992;8.820;2023-11-21T03:59:47;14.60;54.10
48043;DHT22;33988;47.992;8.820;2023-11-21T04:02:14;14.60;54.20
48043;DHT22;33988;47.992;8.820;2023-11-21T04:04:41;14.60;54.20
48043;DHT22;33988;47.992;8.820;2023-11-21T04:07:11;14.60;54.30
48043;DHT22;33988;47.992;8.820;2023-11-21T04:09:40;14.50;54.30
48043;DHT22;33988;47.992;8.820;2023-11-21T04:12:10;14.50;54.40
48043;DHT22;33988;47.992;8.820;2023-11-21T04:14:37;14.40;54.40
48043;DHT22;33988;47.992;8.820;2023-11-21T04:17:07;14.40;54.50
48043;DHT22;33988;47.992;8.820;2023-11-21T04:19:34;14.40;54.60
48043;DHT22;33988;47.992;8.820;2023-11-21T04:22:01;14.40;54.80
48043;DHT22;33988;47.992;8.820;2023-11-21T04:24:33;14.40;54.80
48043;DHT22;33988;47.992;8.820;2023-11-21T04:27:00;14.40;54.90
48043;DHT22;33988;47.992;8.820;2023-11-21T04:29:29;14.40;54.90
48043;DHT22;33988;47.992;8.820;2023-11-21T04:31:59;14.40;55.00
48043;DHT22;33988;47.992;8.820;2023-11-21T04:34:26;14.40;55.00
48043;DHT22;33988;47.992;8.820;2023-11-21T04:36:55;14.40;55.00
48043;DHT22;33988;47.992;8.820;2023-11-21T04:39:22;14.40;55.00
48043;DHT22;33988;47.992;8.820;2023-11-21T04:41:52;14.40;55.00
48043;DHT22;33988;47.992;8.820;2023-11-21T04:44:19;14.40;55.00
48043;DHT22;33988;47.992;8.820;2023-11-21T04:46:48;14.40;55.10
48043;DHT22;33988;47.992;8.820;2023-11-21T04:49:18;14.40;55.00
48043;DHT22;33988;47.992;8.820;2023-11-21T04:51:47;14.40;55.00
48043;DHT22;33988;47.992;8.820;2023-11-21T04:54:14;14.50;55.10
48043;DHT22;33988;47.992;8.820;2023-11-21T04:56:40;14.40;55.10
48043;DHT22;33988;47.992;8.820;2023-11-21T04:59:10;14.40;55.10
48043;DHT22;33988;47.992;8.820;2023-11-21T05:01:37;14.50;55.10
48043;DHT22;33988;47.992;8.820;2023-11-21T05:04:05;14.50;55.20
48043;DHT22;33988;47.992;8.820;2023-11-21T05:06:35;14.40;55.10
48043;DHT22;33988;47.992;8.820;2023-11-21T05:09:02;14.50;55.10
48043;DHT22;33988;47.992;8.820;2023-11-21T05:11:29;14.50;55.10
48043;DHT22;33988;47.992;8.820;2023-11-21T05:13:56;14.50;55.10
48043;DHT22;33988;47.992;8.820;2023-11-21T05:16:26;14.50;55.10
48043;DHT22;33988;47.992;8.820;2023-11-21T05:18:56;14.50;55.10
48043;DHT22;33988;47.992;8.820;2023-11-21T05:21:28;14.40;55.00
48043;DHT22;33988;47.992;8.820;2023-11-21T05:23:56;14.40;55.00
48043;DHT22;33988;47.992;8.820;2023-11-21T05:26:25;14.50;55.10
48043;DHT22;33988;47.992;8.820;2023-11-21T05:28:52;14.50;55.10
48043;DHT22;33988;47.992;8.820;2023-11-21T05:31:22;14.50;55.10
48043;DHT22;33988;47.992;8.820;2023-11-21T05:33:51;14.40;55.00
48043;DHT22;33988;47.992;8.820;2023-11-21T05:36:18;14.40;54.90
48043;DHT22;33988;47.992;8.820;2023-11-21T05:38:47;14.40;54.90
48043;DHT22;33988;47.992;8.820;2023-11-21T05:41:15;14.40;54.90
48043;DHT22;33988;47.992;8.820;2023-11-21T05:43:44;14.40;54.90
48043;DHT22;33988;47.992;8.820;2023-11-21T05:46:11;14.40;54.90
48043;DHT22;33988;47.992;8.820;2023-11-21T05:48:40;14.40;54.90
48043;DHT22;33988;47.992;8.820;2023-11-21T05:51:09;14.40;54.90
48043;DHT22;33988;47.992;8.820;2023-11-21T05:53:42;14.40;54.90
48043;DHT22;33988;47.992;8.820;2023-11-21T05:56:09;14.40;54.90
48043;DHT22;33988;47.992;8.820;2023-11-21T05:58:38;14.30;54.90
48043;DHT22;33988;47.992;8.820;2023-11-21T06:01:06;14.30;55.00
48043;DHT22;33988;47.992;8.820;2023-11-21T06:03:41;14.30;55.00
48043;DHT22;33988;47.992;8.820;2023-11-21T06:06:10;14.30;55.10
48043;DHT22;33988;47.992;8.820;2023-11-21T06:08:36;14.30;55.10
48043;DHT22;33988;47.992;8.820;2023-11-21T06:11:06;14.30;55.20
48043;DHT22;33988;47.992;8.820;2023-11-21T06:13:35;14.30;55.20
48043;DHT22;33988;47.992;8.820;2023-11-21T06:16:05;14.30;55.20
48043;DHT22;33988;47.992;8.820;2023-11-21T06:18:34;14.30;55.20
48043;DHT22;33988;47.992;8.820;2023-11-21T06:21:01;14.30;55.30
48043;DHT22;33988;47.992;8.820;2023-11-21T06:23:31;14.30;55.30
48043;DHT22;33988;47.992;8.820;2023-11-21T06:25:58;14.30;55.30
48043;DHT22;33988;47.992;8.820;2023-11-21T06:28:25;14.40;55.40
48043;DHT22;33988;47.992;8.820;2023-11-21T06:30:54;14.30;55.40
48043;DHT22;33988;47.992;8.820;2023-11-21T06:33:34;14.30;55.40
48043;DHT22;33988;47.992;8.820;2023-11-21T06:36:03;14.30;55.40
48043;DHT22;33988;47.992;8.820;2023-11-21T06:38:30;14.40;55.50
48043;DHT22;33988;47.992;8.820;2023-11-21T06:40:58;14.40;55.40
48043;DHT22;33988;47.992;8.820;2023-11-21T06:43:31;14.40;55.50
48043;DHT22;33988;47.992;8.820;2023-11-21T06:45:58;14.40;55.50
48043;DHT22;33988;47.992;8.820;2023-11-21T06:48:25;14.40;55.50
48043;DHT22;33988;47.992;8.820;2023-11-21T06:50:52;14.40;55.50
48043;DHT22;33988;47.992;8.820;2023-11-21T06:53:19;14.40;55.50
48043;DHT22;33988;47.992;8.820;2023-11-21T06:55:46;14.40;55.50
48043;DHT22;33988;47.992;8.820;2023-11-21T06:58:13;14.40;55.60
48043;DHT22;33988;47.992;8.820;2023-11-21T07:00:41;14.40;55.60
48043;DHT22;33988;47.992;8.820;2023-11-21T07:03:15;14.40;55.60
48043;DHT22;33988;47.992;8.820;2023-11-21T07:05:42;14.20;55.80
48043;DHT22;33988;47.992;8.820;2023-11-21T07:08:09;14.40;55.60
48043;DHT22;33988;47.992;8.820;2023-11-21T07:10:38;14.40;55.60
48043;DHT22;33988;47.992;8.820;2023-11-21T07:13:08;14.40;55.60
48043;DHT22;33988;47.992;8.820;2023-11-21T07:15:39;14.40;55.70
48043;DHT22;33988;47.992;8.820;2023-11-21T07:18:10;14.40;55.70
48043;DHT22;33988;47.992;8.820;2023-11-21T07:20:38;14.40;55.80
48043;DHT22;33988;47.992;8.820;2023-11-21T07:23:07;14.40;55.80
48043;DHT22;33988;47.992;8.820;2023-11-21T07:25:34;14.40;55.80
48043;DHT22;33988;47.992;8.820;2023-11-21T07:28:06;14.40;55.90
48043;DHT22;33988;47.992;8.820;2023-11-21T07:30:33;14.40;55.80
48043;DHT22;33988;47.992;8.820;2023-11-21T07:33:02;14.50;56.00
48043;DHT22;33988;47.992;8.820;2023-11-21T07:35:29;14.50;55.90
48043;DHT22;33988;47.992;8.820;2023-11-21T07:37:56;14.50;56.00
48043;DHT22;33988;47.992;8.820;2023-11-21T07:40:23;14.50;56.00
48043;DHT22;33988;47.992;8.820;2023-11-21T07:42:50;14.50;56.00
48043;DHT22;33988;47.992;8.820;2023-11-21T07:45:17;14.60;56.00
48043;DHT22;33988;47.992;8.820;2023-11-21T07:47:44;14.60;56.00
48043;DHT22;33988;47.992;8.820;2023-11-21T07:50:13;14.60;56.00
48043;DHT22;33988;47.992;8.820;2023-11-21T07:52:40;14.60;56.10
48043;DHT22;33988;47.992;8.820;2023-11-21T07:55:10;14.60;56.10
48043;DHT22;33988;47.992;8.820;2023-11-21T07:57:38;14.60;56.00
48043;DHT22;33988;47.992;8.820;2023-11-21T08:00:06;14.60;56.00
48043;DHT22;33988;47.992;8.820;2023-11-21T08:02:35;14.60;56.00
48043;DHT22;33988;47.992;8.820;2023-11-21T08:05:05;14.60;55.90
48043;DHT22;33988;47.992;8.820;2023-11-21T08:07:36;14.60;56.00
48043;DHT22;33988;47.992;8.820;2023-11-21T08:10:04;14.70;55.80
48043;DHT22;33988;47.992;8.820;2023-11-21T08:12:31;14.70;55.80
48043;DHT22;33988;47.992;8.820;2023-11-21T08:14:58;14.70;55.90
48043;DHT22;33988;47.992;8.820;2023-11-21T08:17:25;14.70;55.90
48043;DHT22;33988;47.992;8.820;2023-11-21T08:19:52;14.70;55.90
48043;DHT22;33988;47.992;8.820;2023-11-21T08:22:19;14.70;55.90
48043;DHT22;33988;47.992;8.820;2023-11-21T08:24:49;14.70;56.00
48043;DHT22;33988;47.992;8.820;2023-11-21T08:27:16;14.70;56.00
48043;DHT22;33988;47.992;8.820;2023-11-21T08:29:43;14.70;56.00
48043;DHT22;33988;47.992;8.820;2023-11-21T08:32:10;14.80;56.10
48043;DHT22;33988;47.992;8.820;2023-11-21T08:34:37;14.70;56.10
48043;DHT22;33988;47.992;8.820;2023-11-21T08:37:09;14.80;56.10
48043;DHT22;33988;47.992;8.820;2023-11-21T08:39:37;14.80;56.10
48043;DHT22;33988;47.992;8.820;2023-11-21T08:42:04;14.80;56.10
48043;DHT22;33988;47.992;8.820;2023-11-21T08:44:33;14.90;56.10
48043;DHT22;33988;47.992;8.820;2023-11-21T08:47:02;14.90;56.10
48043;DHT22;33988;47.992;8.820;2023-11-21T08:49:34;14.90;56.10
48043;DHT22;33988;47.992;8.820;2023-11-21T08:52:05;14.90;56.10
48043;DHT22;33988;47.992;8.820;2023-11-21T08:54:33;14.90;56.00
48043;DHT22;33988;47.992;8.820;2023-11-21T08:57:01;14.90;56.00
48043;DHT22;33988;47.992;8.820;2023-11-21T08:59:28;14.90;55.90
48043;DHT22;33988;47.992;8.820;2023-11-21T09:01:55;15.00;56.00
48043;DHT22;33988;47.992;8.820;2023-11-21T09:04:27;15.00;56.00
48043;DHT22;33988;47.992;8.820;2023-11-21T09:06:56;14.90;56.00
48043;DHT22;33988;47.992;8.820;2023-11-21T09:09:26;15.00;56.10
48043;DHT22;33988;47.992;8.820;2023-11-21T09:11:54;15.00;56.10
48043;DHT22;33988;47.992;8.820;2023-11-21T09:14:24;15.00;56.10
48043;DHT22;33988;47.992;8.820;2023-11-21T09:16:51;15.00;56.20
48043;DHT22;33988;47.992;8.820;2023-11-21T09:19:20;15.00;56.10
48043;DHT22;33988;47.992;8.820;2023-11-21T09:21:52;15.10;56.20
48043;DHT22;33988;47.992;8.820;2023-11-21T09:24:22;15.10;56.10
48043;DHT22;33988;47.992;8.820;2023-11-21T09:26:49;15.10;56.00
48043;DHT22;33988;47.992;8.820;2023-11-21T09:29:16;15.10;56.10
48043;DHT22;33988;47.992;8.820;2023-11-21T09:31:43;15.20;56.10
48043;DHT22;33988;47.992;8.820;2023-11-21T09:34:10;15.20;56.10
48043;DHT22;33988;47.992;8.820;2023-11-21T09:36:40;15.20;56.10
48043;DHT22;33988;47.992;8.820;2023-11-21T09:39:07;15.20;56.00
48043;DHT22;33988;47.992;8.820;2023-11-21T09:44:18;15.20;56.00
48043;DHT22;33988;47.992;8.820;2023-11-21T09:46:50;15.30;56.00
48043;DHT22;33988;47.992;8.820;2023-11-21T09:49:23;15.30;55.90
48043;DHT22;33988;47.992;8.820;2023-11-21T09:51:57;15.30;55.90
48043;DHT22;33988;47.992;8.820;2023-11-21T09:54:25;15.30;55.80
48043;DHT22;33988;47.992;8.820;2023-11-21T09:56:55;15.30;56.40
48043;DHT22;33988;47.992;8.820;2023-11-21T09:59:25;15.30;55.70
48043;DHT22;33988;47.992;8.820;2023-11-21T10:01:58;15.30;55.70
48043;DHT22;33988;47.992;8.820;2023-11-21T10:04:25;15.30;55.70
48043;DHT22;33988;47.992;8.820;2023-11-21T10:06:55;15.30;55.70
48043;DHT22;33988;47.992;8.820;2023-11-21T10:09:26;15.30;55.70
48043;DHT22;33988;47.992;8.820;2023-11-21T10:11:53;15.30;55.90
48043;DHT22;33988;47.992;8.820;2023-11-21T10:14:25;15.30;55.70
48043;DHT22;33988;47.992;8.820;2023-11-21T10:16:55;15.30;55.70
48043;DHT22;33988;47.992;8.820;2023-11-21T10:19:23;15.30;55.70
48043;DHT22;33988;47.992;8.820;2023-11-21T10:21:53;15.30;55.70
48043;DHT22;33988;47.992;8.820;2023-11-21T10:24:21;15.40;55.80
48043;DHT22;33988;47.992;8.820;2023-11-21T10:26:48;15.40;55.80
48043;DHT22;33988;47.992;8.820;2023-11-21T10:29:22;15.40;55.90
48043;DHT22;33988;47.992;8.820;2023-11-21T10:31:53;15.40;55.80
48043;DHT22;33988;47.992;8.820;2023-11-21T10:34:25;15.40;55.90
48043;DHT22;33988;47.992;8.820;2023-11-21T10:36:54;15.40;55.80
48043;DHT22;33988;47.992;8.820;2023-11-21T10:39:25;15.40;55.80
48043;DHT22;33988;47.992;8.820;2023-11-21T10:41:57;15.50;55.80
48043;DHT22;33988;47.992;8.820;2023-11-21T10:44:29;15.50;55.80
48043;DHT22;33988;47.992;8.820;2023-11-21T10:46:57;15.50;55.70
48043;DHT22;33988;47.992;8.820;2023-11-21T10:49:27;15.50;55.70
48043;DHT22;33988;47.992;8.820;2023-11-21T10:51:59;15.50;55.60
48043;DHT22;33988;47.992;8.820;2023-11-21T10:54:30;15.60;55.60
48043;DHT22;33988;47.992;8.820;2023-11-21T10:56:59;15.60;55.60
48043;DHT22;33988;47.992;8.820;2023-11-21T10:59:30;15.60;55.50
48043;DHT22;33988;47.992;8.820;2023-11-21T11:01:58;15.60;55.50
48043;DHT22;33988;47.992;8.820;2023-11-21T11:04:27;15.60;55.50
48043;DHT22;33988;47.992;8.820;2023-11-21T11:06:58;15.60;55.50
48043;DHT22;33988;47.992;8.820;2023-11-21T11:09:32;15.60;54.90
48043;DHT22;33988;47.992;8.820;2023-11-21T11:12:02;15.60;55.40
48043;DHT22;33988;47.992;8.820;2023-11-21T11:14:32;15.60;55.30
48043;DHT22;33988;47.992;8.820;2023-11-21T11:16:59;15.60;55.40
48043;DHT22;33988;47.992;8.820;2023-11-21T11:19:31;15.60;55.30
48043;DHT22;33988;47.992;8.820;2023-11-21T11:33:46;15.50;55.30
48043;DHT22;33988;47.992;8.820;2023-11-21T11:39:30;15.40;55.30
48043;DHT22;33988;47.992;8.820;2023-11-21T11:42:07;15.40;56.00
48043;DHT22;33988;47.992;8.820;2023-11-21T11:47:16;15.40;55.40
48043;DHT22;33988;47.992;8.820;2023-11-21T11:50:17;15.50;55.40
48043;DHT22;33988;47.992;8.820;2023-11-21T11:52:48;15.40;55.50
48043;DHT22;33988;47.992;8.820;2023-11-21T11:55:21;15.50;55.50
48043;DHT22;33988;47.992;8.820;2023-11-21T11:57:52;15.50;55.50
48043;DHT22;33988;47.992;8.820;2023-11-21T12:00:34;15.50;55.50
48043;DHT22;33988;47.992;8.820;2023-11-21T12:03:06;15.50;55.50
48043;DHT22;33988;47.992;8.820;2023-11-21T12:05:37;15.50;55.50
48043;DHT22;33988;47.992;8.820;2023-11-21T12:08:07;15.50;55.50
48043;DHT22;33988;47.992;8.820;2023-11-21T12:10:38;15.60;55.50
48043;DHT22;33988;47.992;8.820;2023-11-21T12:13:11;15.50;55.40
48043;DHT22;33988;47.992;8.820;2023-11-21T12:15:41;15.50;55.40
48043;DHT22;33988;47.992;8.820;2023-11-21T12:18:09;15.60;55.50
48043;DHT22;33988;47.992;8.820;2023-11-21T12:20:36;15.60;55.50
48043;DHT22;33988;47.992;8.820;2023-11-21T12:23:06;15.60;55.40
48043;DHT22;33988;47.992;8.820;2023-11-21T12:25:35;15.60;55.40
48043;DHT22;33988;47.992;8.820;2023-11-21T12:28:03;15.60;55.40
48043;DHT22;33988;47.992;8.820;2023-11-21T12:30:31;15.60;55.30
48043;DHT22;33988;47.992;8.820;2023-11-21T12:33:00;15.60;55.30
48043;DHT22;33988;47.992;8.820;2023-11-21T12:35:30;15.60;55.30
48043;DHT22;33988;47.992;8.820;2023-11-21T12:38:02;15.60;55.20
48043;DHT22;33988;47.992;8.820;2023-11-21T12:40:32;15.60;55.30
48043;DHT22;33988;47.992;8.820;2023-11-21T12:43:04;15.60;55.30
48043;DHT22;33988;47.992;8.820;2023-11-21T12:45:32;15.60;55.30
48043;DHT22;33988;47.992;8.820;2023-11-21T12:48:02;15.70;55.30
48043;DHT22;33988;47.992;8.820;2023-11-21T12:50:34;15.70;55.30
48043;DHT22;33988;47.992;8.820;2023-11-21T12:53:11;15.70;55.30
48043;DHT22;33988;47.992;8.820;2023-11-21T12:55:39;15.70;55.30
48043;DHT22;33988;47.992;8.820;2023-11-21T12:58:11;15.70;55.30
48043;DHT22;33988;47.992;8.820;2023-11-21T13:00:47;15.70;55.20
48043;DHT22;33988;47.992;8.820;2023-11-21T13:03:15;15.70;55.20
48043;DHT22;33988;47.992;8.820;2023-11-21T13:05:46;15.80;55.20
48043;DHT22;33988;47.992;8.820;2023-11-21T13:08:20;15.80;55.20
48043;DHT22;33988;47.992;8.820;2023-11-21T13:10:54;15.80;55.20
48043;DHT22;33988;47.992;8.820;2023-11-21T13:13:28;15.80;55.20
48043;DHT22;33988;47.992;8.820;2023-11-21T13:15:59;15.80;55.10
48043;DHT22;33988;47.992;8.820;2023-11-21T13:18:35;15.60;55.20
48043;DHT22;33988;47.992;8.820;2023-11-21T13:21:04;15.70;55.10
48043;DHT22;33988;47.992;8.820;2023-11-21T13:23:38;15.80;55.10
48043;DHT22;33988;47.992;8.820;2023-11-21T13:26:12;15.80;55.10
48043;DHT22;33988;47.992;8.820;2023-11-21T13:28:39;15.80;55.20
48043;DHT22;33988;47.992;8.820;2023-11-21T13:31:08;15.80;55.10
48043;DHT22;33988;47.992;8.820;2023-11-21T13:33:51;15.80;55.10
48043;DHT22;33988;47.992;8.820;2023-11-21T13:36:23;15.80;55.20
48043;DHT22;33988;47.992;8.820;2023-11-21T13:38:51;15.80;55.20
48043;DHT22;33988;47.992;8.820;2023-11-21T13:41:21;15.80;55.20
48043;DHT22;33988;47.992;8.820;2023-11-21T13:43:59;15.80;55.10
48043;DHT22;33988;47.992;8.820;2023-11-21T13:46:43;15.80;55.10
48043;DHT22;33988;47.992;8.820;2023-11-21T13:49:14;15.80;55.10
48043;DHT22;33988;47.992;8.820;2023-11-21T13:51:47;15.90;55.20
48043;DHT22;33988;47.992;8.820;2023-11-21T13:54:18;15.90;55.20
48043;DHT22;33988;47.992;8.820;2023-11-21T13:56:49;15.90;55.20
48043;DHT22;33988;47.992;8.820;2023-11-21T13:59:17;15.90;55.10
48043;DHT22;33988;47.992;8.820;2023-11-21T14:01:52;15.90;55.10
48043;DHT22;33988;47.992;8.820;2023-11-21T14:04:20;15.90;55.00
48043;DHT22;33988;47.992;8.820;2023-11-21T14:07:01;15.90;54.80
48043;DHT22;33988;47.992;8.820;2023-11-21T14:09:47;15.80;54.80
48043;DHT22;33988;47.992;8.820;2023-11-21T14:12:15;15.80;54.90
48043;DHT22;33988;47.992;8.820;2023-11-21T14:14:47;15.80;54.80
48043;DHT22;33988;47.992;8.820;2023-11-21T14:17:16;15.80;54.80
48043;DHT22;33988;47.992;8.820;2023-11-21T14:19:43;15.60;54.90
48043;DHT22;33988;47.992;8.820;2023-11-21T14:22:14;15.80;54.90
48043;DHT22;33988;47.992;8.820;2023-11-21T14:24:41;15.80;54.70
48043;DHT22;33988;47.992;8.820;2023-11-21T14:27:16;15.80;54.70
48043;DHT22;33988;47.992;8.820;2023-11-21T14:29:43;15.80;55.40
48043;DHT22;33988;47.992;8.820;2023-11-21T14:32:11;15.80;54.80
48043;DHT22;33988;47.992;8.820;2023-11-21T14:34:40;15.80;54.80
48043;DHT22;33988;47.992;8.820;2023-11-21T14:37:09;15.70;54.80
48043;DHT22;33988;47.992;8.820;2023-11-21T14:39:43;15.70;54.80
48043;DHT22;33988;47.992;8.820;2023-11-21T14:42:14;15.70;54.80
48043;DHT22;33988;47.992;8.820;2023-11-21T14:44:42;15.70;54.80
48043;DHT22;33988;47.992;8.820;2023-11-21T14:47:11;15.70;54.80
48043;DHT22;33988;47.992;8.820;2023-11-21T14:49:44;15.70;54.80
48043;DHT22;33988;47.992;8.820;2023-11-21T14:52:21;15.70;54.70
48043;DHT22;33988;47.992;8.820;2023-11-21T14:55:18;15.70;54.80
48043;DHT22;33988;47.992;8.820;2023-11-21T14:58:05;15.70;54.80
48043;DHT22;33988;47.992;8.820;2023-11-21T15:00:32;15.70;54.70
48043;DHT22;33988;47.992;8.820;2023-11-21T15:03:03;15.70;54.70
48043;DHT22;33988;47.992;8.820;2023-11-21T15:05:31;15.70;54.70
48043;DHT22;33988;47.992;8.820;2023-11-21T15:08:00;15.60;54.70
48043;DHT22;33988;47.992;8.820;2023-11-21T15:10:50;15.60;54.70
48043;DHT22;33988;47.992;8.820;2023-11-21T15:13:21;15.60;54.80
48043;DHT22;33988;47.992;8.820;2023-11-21T15:15:50;15.60;54.70
48043;DHT22;33988;47.992;8.820;2023-11-21T15:18:19;15.60;54.70
48043;DHT22;33988;47.992;8.820;2023-11-21T15:20:46;15.60;54.60
48043;DHT22;33988;47.992;8.820;2023-11-21T15:23:13;15.60;54.70
48043;DHT22;33988;47.992;8.820;2023-11-21T15:25:45;15.60;54.70
48043;DHT22;33988;47.992;8.820;2023-11-21T15:28:19;15.60;54.70
48043;DHT22;33988;47.992;8.820;2023-11-21T15:30:48;15.60;54.70
48043;DHT22;33988;47.992;8.820;2023-11-21T15:33:18;15.60;54.70
48043;DHT22;33988;47.992;8.820;2023-11-21T15:35:45;15.60;54.70
48043;DHT22;33988;47.992;8.820;2023-11-21T15:38:14;15.60;54.70
48043;DHT22;33988;47.992;8.820;2023-11-21T15:40:44;15.60;54.70
48043;DHT22;33988;47.992;8.820;2023-11-21T15:43:14;15.60;54.70
48043;DHT22;33988;47.992;8.820;2023-11-21T15:45:41;15.60;54.70
48043;DHT22;33988;47.992;8.820;2023-11-21T15:48:13;15.50;54.70
48043;DHT22;33988;47.992;8.820;2023-11-21T15:50:41;15.30;54.90
48043;DHT22;33988;47.992;8.820;2023-11-21T15:53:09;15.50;54.80
48043;DHT22;33988;47.992;8.820;2023-11-21T15:55:38;15.50;54.70
48043;DHT22;33988;47.992;8.820;2023-11-21T15:58:09;15.50;54.80
48043;DHT22;33988;47.992;8.820;2023-11-21T16:00:36;15.50;54.80
48043;DHT22;33988;47.992;8.820;2023-11-21T16:03:03;15.50;54.80
48043;DHT22;33988;47.992;8.820;2023-11-21T16:05:30;15.50;54.90
48043;DHT22;33988;47.992;8.820;2023-11-21T16:07:57;15.50;54.90